This is the latest recevied weather packets stored in our database for station/object W2SBL-1. If no packets are shown the sender has not sent any weather packets the latest 10 day(s).
| Time | Temp. | Humidity | Pressure | Rain* | Wind** | Luminosity | Snow |
|---|---|---|---|---|---|---|---|
| 1788251294 | 23.33° C | 57% | 1016.4 hPa | - | - | - | - |
| 1788250394 | 23.33° C | 57% | 1016.2 hPa | - | - | - | - |
| 1788249494 | 11.11° C | 57% | 996.9 hPa | - | - | - | - |
| 1788248594 | 23.33° C | 57% | 1016.5 hPa | - | - | - | - |
| 1788247694 | 23.33° C | 57% | 1016.3 hPa | - | - | - | - |
| 1788246794 | 23.33° C | 57% | 1016.3 hPa | - | - | - | - |
| 1788245894 | 23.33° C | 58% | 1016.3 hPa | - | - | - | - |
| 1788244994 | 23.33° C | 58% | 1016.5 hPa | - | - | - | - |
| 1788244094 | 23.33° C | 58% | 1016.4 hPa | - | - | - | - |
| 1788243193 | 23.89° C | 57% | 1016.7 hPa | - | - | - | - |
| 1788242293 | 24.44° C | 56% | 1017 hPa | - | - | - | - |
| 1788241393 | 25° C | 56% | 1017.1 hPa | - | - | - | - |
| 1788240493 | 25° C | 56% | 1017 hPa | - | - | - | - |
| 1788239593 | 25.56° C | 55% | 1017.1 hPa | - | - | - | - |
| 1788238693 | 25.56° C | 55% | 1017 hPa | - | - | - | - |
| 1788237793 | 25.56° C | 55% | 1017 hPa | - | - | - | - |
| 1788236893 | 25.56° C | 55% | 1016.9 hPa | - | - | - | - |
| 1788235993 | 25.56° C | 54% | 1017.1 hPa | - | - | - | - |
| 1788235093 | 25.56° C | 55% | 1017.3 hPa | - | - | - | - |
| 1788234193 | 25.56° C | 54% | 1017.3 hPa | - | - | - | - |
| 1788233293 | 25.56° C | 54% | 1023.1 hPa | - | - | - | - |
| 1788232393 | 25.56° C | 54% | 1017.7 hPa | - | - | - | - |
| 1788231492 | 25.56° C | 55% | 1017.7 hPa | - | - | - | - |
| 1788230592 | 25.56° C | 55% | 1017.7 hPa | - | - | - | - |
| 1788229692 | 25.56° C | 54% | 1017.8 hPa | - | - | - | - |
* Rain since midnight (hover to see other rain measurements)
** Current wind speed in m/s (hover to see current wind gust speed)